createdAt,value
2017-12-25T00:00:33.732Z,96342.48
2017-12-25T00:03:01.207Z,96337.18
2017-12-25T00:05:28.672Z,96329.17
2017-12-25T00:07:56.152Z,96330.92
2017-12-25T00:10:23.612Z,96330.28
2017-12-25T00:12:51.200Z,96328.91
2017-12-25T00:15:18.668Z,96326.56
2017-12-25T00:17:46.168Z,96319.11
2017-12-25T00:20:13.632Z,96322.38
2017-12-25T00:22:41.108Z,96313.60
2017-12-25T00:25:08.593Z,96324.02
2017-12-25T00:27:36.056Z,96327.47
2017-12-25T00:30:03.540Z,96321.00
2017-12-25T00:32:31.067Z,96321.38
2017-12-25T00:34:58.568Z,96318.09
2017-12-25T00:37:26.032Z,96318.72
2017-12-25T00:39:53.492Z,96309.42
2017-12-25T00:42:20.969Z,96316.32
2017-12-25T00:44:48.433Z,96312.22
2017-12-25T00:47:15.925Z,96308.41
2017-12-25T00:49:43.388Z,96314.09
2017-12-25T00:52:10.856Z,96307.45
2017-12-25T00:54:38.340Z,96306.70
2017-12-25T00:57:05.808Z,96305.53
2017-12-25T00:59:33.271Z,96309.61
2017-12-25T01:02:00.757Z,96310.82
2017-12-25T01:04:28.224Z,96307.81
2017-12-25T01:06:55.698Z,96317.84
2017-12-25T01:09:23.189Z,96317.84
2017-12-25T01:11:50.653Z,96315.44
2017-12-25T01:14:18.113Z,96310.45
2017-12-25T01:16:45.593Z,96309.91
2017-12-25T01:19:13.065Z,96311.16
2017-12-25T01:21:40.533Z,96314.44
2017-12-25T01:24:08.025Z,96312.45
2017-12-25T01:26:35.492Z,96314.02
2017-12-25T01:29:02.960Z,96314.84
2017-12-25T01:31:30.440Z,96321.00
2017-12-25T01:33:57.910Z,96315.25
2017-12-25T01:36:25.393Z,96320.36
2017-12-25T01:38:52.876Z,96318.88
2017-12-25T01:41:20.341Z,96317.11
2017-12-25T01:43:47.805Z,96316.38
2017-12-25T01:46:15.292Z,96316.44
2017-12-25T01:48:42.759Z,96312.02
2017-12-25T01:51:10.336Z,96314.19
2017-12-25T01:53:40.709Z,96317.59
2017-12-25T01:56:10.121Z,96309.29
2017-12-25T01:58:46.329Z,96310.16
2017-12-25T02:04:31.404Z,96301.41
2017-12-25T02:10:03.952Z,96294.93
2017-12-25T02:12:31.424Z,96292.56
2017-12-25T02:14:58.909Z,96291.59
2017-12-25T02:17:26.376Z,96296.53
2017-12-25T02:19:53.864Z,96292.77
2017-12-25T02:22:21.333Z,96288.70
2017-12-25T02:24:48.819Z,96287.95
2017-12-25T02:27:16.309Z,96284.47
2017-12-25T02:29:43.789Z,96287.94
2017-12-25T02:32:11.289Z,96286.16
2017-12-25T02:34:38.769Z,96283.17
2017-12-25T02:37:06.236Z,96275.86
2017-12-25T02:39:33.726Z,96277.78
2017-12-25T02:42:01.215Z,96278.12
2017-12-25T02:44:28.712Z,96278.73
2017-12-25T02:46:56.201Z,96275.11
2017-12-25T02:49:23.692Z,96275.90
2017-12-25T02:51:51.165Z,96284.29
2017-12-25T02:54:18.646Z,96265.12
2017-12-25T02:56:46.137Z,96270.59
2017-12-25T02:59:13.607Z,96267.87
2017-12-25T03:01:41.092Z,96265.49
2017-12-25T03:04:08.565Z,96264.91
2017-12-25T03:06:36.061Z,96263.60
2017-12-25T03:09:03.541Z,96261.11
2017-12-25T03:11:31.017Z,96261.20
2017-12-25T03:13:58.510Z,96255.38
2017-12-25T03:16:25.984Z,96255.42
2017-12-25T03:18:53.473Z,96253.02
2017-12-25T03:21:20.949Z,96251.66
2017-12-25T03:23:48.442Z,96244.12
2017-12-25T03:26:15.918Z,96249.87
2017-12-25T03:28:43.386Z,96245.84
2017-12-25T03:31:10.872Z,96244.09
2017-12-25T03:33:38.349Z,96237.56
2017-12-25T03:36:05.849Z,96242.55
2017-12-25T03:38:33.336Z,96239.08
2017-12-25T03:41:00.808Z,96240.60
2017-12-25T03:43:28.289Z,96235.28
2017-12-25T03:45:55.776Z,96231.11
2017-12-25T03:48:23.244Z,96229.29
2017-12-25T03:50:50.709Z,96230.33
2017-12-25T03:53:18.225Z,96228.28
2017-12-25T03:55:45.711Z,96229.93
2017-12-25T03:58:13.181Z,96231.63
2017-12-25T04:00:40.673Z,96225.57
2017-12-25T04:03:08.144Z,96223.39
2017-12-25T04:05:35.612Z,96227.34
2017-12-25T04:08:03.102Z,96211.27
2017-12-25T04:10:30.572Z,96217.06
2017-12-25T04:12:58.049Z,96213.94
2017-12-25T04:15:25.541Z,96218.07
2017-12-25T04:17:53.017Z,96219.28
2017-12-25T04:20:20.492Z,96216.91
2017-12-25T04:22:47.985Z,96213.98
2017-12-25T04:25:15.461Z,96217.75
2017-12-25T04:27:42.935Z,96215.95
2017-12-25T04:30:10.421Z,96217.17
2017-12-25T04:32:37.892Z,96213.59
2017-12-25T04:35:05.356Z,96221.13
2017-12-25T04:37:32.840Z,96208.81
2017-12-25T04:40:00.316Z,96209.78
2017-12-25T04:42:27.794Z,96208.62
2017-12-25T04:44:55.276Z,96204.89
2017-12-25T04:47:22.810Z,96200.33
2017-12-25T04:49:50.310Z,96198.65
2017-12-25T04:52:17.827Z,96206.05
2017-12-25T04:54:45.321Z,96203.41
2017-12-25T04:57:12.784Z,96204.83
2017-12-25T04:59:40.254Z,96205.45
2017-12-25T05:02:07.740Z,96204.46
2017-12-25T05:04:35.205Z,96202.32
2017-12-25T05:07:02.685Z,96194.57
2017-12-25T05:09:30.160Z,96201.04
2017-12-25T05:11:57.648Z,96190.00
2017-12-25T05:14:25.117Z,96185.12
2017-12-25T05:16:52.585Z,96185.38
2017-12-25T05:19:20.076Z,96188.36
2017-12-25T05:21:47.553Z,96182.77
2017-12-25T05:24:15.049Z,96180.30
2017-12-25T05:26:42.521Z,96185.38
2017-12-25T05:29:10.012Z,96179.48
2017-12-25T05:31:37.496Z,96180.42
2017-12-25T05:34:04.966Z,96174.58
2017-12-25T05:36:32.457Z,96179.77
2017-12-25T05:38:59.929Z,96168.00
2017-12-25T05:41:27.424Z,96166.64
2017-12-25T05:43:54.901Z,96168.27
2017-12-25T05:46:22.393Z,96168.36
2017-12-25T05:48:49.867Z,96164.89
2017-12-25T05:51:17.402Z,96164.92
2017-12-25T05:53:44.905Z,96160.50
2017-12-25T05:56:12.376Z,96151.45
2017-12-25T05:58:39.843Z,96154.80
2017-12-25T06:01:07.324Z,96150.47
2017-12-25T06:03:34.788Z,96155.41
2017-12-25T06:06:02.252Z,96150.73
2017-12-25T06:08:29.744Z,96148.64
2017-12-25T06:10:57.216Z,96156.49
2017-12-25T06:13:24.688Z,96146.52
2017-12-25T06:15:52.173Z,96147.36
2017-12-25T06:18:19.645Z,96143.34
2017-12-25T06:20:47.122Z,96147.55
2017-12-25T06:23:14.609Z,96150.28
2017-12-25T06:25:42.076Z,96149.20
2017-12-25T06:28:09.545Z,96154.02
2017-12-25T06:30:37.030Z,96146.37
2017-12-25T06:33:04.504Z,96143.41
2017-12-25T06:35:31.976Z,96140.41
2017-12-25T06:37:59.473Z,96136.48
2017-12-25T06:40:26.944Z,96132.42
2017-12-25T06:42:54.425Z,96138.50
2017-12-25T06:45:21.921Z,96146.30
2017-12-25T06:47:49.399Z,96136.02
2017-12-25T06:50:16.873Z,96139.92
2017-12-25T06:52:44.361Z,96137.62
2017-12-25T06:55:11.868Z,96131.37
2017-12-25T06:57:39.406Z,96138.02
2017-12-25T07:00:06.997Z,96126.16
2017-12-25T07:02:34.473Z,96126.08
2017-12-25T07:05:01.944Z,96127.05
2017-12-25T07:07:29.438Z,96126.20
2017-12-25T07:09:56.904Z,96122.60
2017-12-25T07:12:24.392Z,96126.36
2017-12-25T07:14:51.856Z,96124.01
2017-12-25T07:17:19.320Z,96117.99
2017-12-25T07:19:46.815Z,96116.45
2017-12-25T07:22:16.349Z,96117.14
2017-12-25T07:24:45.013Z,96113.67
2017-12-25T07:27:12.481Z,96111.27
2017-12-25T07:29:39.953Z,96113.34
2017-12-25T07:32:07.468Z,96115.80
2017-12-25T07:34:34.936Z,96119.11
2017-12-25T07:37:02.421Z,96114.36
2017-12-25T07:39:29.903Z,96115.66
2017-12-25T07:41:57.407Z,96122.42
2017-12-25T07:44:24.872Z,96122.57
2017-12-25T07:46:52.345Z,96122.85
2017-12-25T07:49:19.869Z,96123.36
2017-12-25T07:51:47.342Z,96120.28
2017-12-25T07:54:14.838Z,96123.34
2017-12-25T07:56:42.344Z,96119.95
2017-12-25T07:59:09.840Z,96111.59
2017-12-25T08:01:37.332Z,96114.78
2017-12-25T08:04:04.804Z,96117.53
2017-12-25T08:06:32.296Z,96111.28
2017-12-25T08:08:59.835Z,96111.54
2017-12-25T08:11:27.325Z,96116.77
2017-12-25T08:13:54.790Z,96115.52
2017-12-25T08:16:22.267Z,96114.06
2017-12-25T08:18:49.753Z,96111.31
2017-12-25T08:21:17.217Z,96116.33
2017-12-25T08:23:44.684Z,96109.58
2017-12-25T08:26:12.172Z,96111.39
2017-12-25T08:28:39.641Z,96114.44
2017-12-25T08:31:07.116Z,96112.98
2017-12-25T08:33:34.603Z,96112.81
2017-12-25T08:36:02.078Z,96117.29
2017-12-25T08:38:29.544Z,96109.96
2017-12-25T08:40:57.056Z,96111.09
2017-12-25T08:43:24.533Z,96110.24
2017-12-25T08:45:51.996Z,96106.33
2017-12-25T08:48:19.830Z,96108.55
2017-12-25T08:50:47.293Z,96106.16
2017-12-25T08:53:14.761Z,96106.90
2017-12-25T08:55:42.253Z,96108.48
2017-12-25T08:58:09.720Z,96105.40
2017-12-25T09:00:37.185Z,96109.17
2017-12-25T09:03:04.668Z,96114.44
2017-12-25T09:05:32.133Z,96106.56
2017-12-25T09:07:59.599Z,96105.80
2017-12-25T09:10:27.097Z,96103.25
2017-12-25T09:12:54.577Z,96100.68
2017-12-25T09:15:22.045Z,96100.78
2017-12-25T09:17:49.596Z,96101.06
2017-12-25T09:20:17.064Z,96100.98
2017-12-25T09:22:44.545Z,96101.84
2017-12-25T09:25:12.017Z,96103.38
2017-12-25T09:27:39.492Z,96098.84
2017-12-25T09:30:06.993Z,96100.49
2017-12-25T09:32:34.478Z,96103.02
2017-12-25T09:35:02.103Z,96096.55
2017-12-25T09:37:29.578Z,96102.91
2017-12-25T09:39:57.060Z,96100.44
2017-12-25T09:42:24.533Z,96093.78
2017-12-25T09:44:52.005Z,96099.50
2017-12-25T09:47:19.491Z,96095.12
2017-12-25T09:49:46.956Z,96091.14
2017-12-25T09:52:14.443Z,96085.95
2017-12-25T09:54:41.904Z,96082.84
2017-12-25T09:57:09.388Z,96083.27
2017-12-25T09:59:36.948Z,96080.56
2017-12-25T10:02:04.409Z,96082.36
2017-12-25T10:04:31.943Z,96075.22
2017-12-25T10:06:59.404Z,96068.81
2017-12-25T10:09:26.884Z,96072.42
2017-12-25T10:11:54.345Z,96072.00
2017-12-25T10:14:21.824Z,96060.73
2017-12-25T10:16:49.291Z,96058.45
2017-12-25T10:19:16.753Z,96049.47
2017-12-25T10:21:44.241Z,96045.38
2017-12-25T10:24:11.704Z,96053.21
2017-12-25T10:26:39.223Z,96046.98
2017-12-25T10:29:06.668Z,96043.33
2017-12-25T10:31:34.608Z,96038.88
2017-12-25T10:34:02.077Z,96042.89
2017-12-25T10:36:29.560Z,96030.77
2017-12-25T10:38:57.026Z,96030.69
2017-12-25T10:41:24.497Z,96028.81
2017-12-25T10:43:52.046Z,96026.17
2017-12-25T10:46:19.518Z,96028.70
2017-12-25T10:48:46.989Z,96021.69
2017-12-25T10:51:14.484Z,96017.77
2017-12-25T10:53:41.952Z,96018.89
2017-12-25T10:56:09.424Z,96010.50
2017-12-25T10:58:36.913Z,96006.46
2017-12-25T11:01:04.507Z,95996.03
2017-12-25T11:03:31.981Z,95992.80
2017-12-25T11:05:59.471Z,95986.28
2017-12-25T11:08:26.977Z,95975.66
2017-12-25T11:10:54.442Z,95968.56
2017-12-25T11:13:21.928Z,95969.87
2017-12-25T11:15:49.405Z,95959.89
2017-12-25T11:18:16.872Z,95955.15
2017-12-25T11:20:44.356Z,95958.66
2017-12-25T11:23:11.836Z,95950.44
2017-12-25T11:25:39.320Z,95946.92
2017-12-25T11:28:06.810Z,95934.66
2017-12-25T11:30:34.293Z,95931.83
2017-12-25T11:33:01.805Z,95927.69
2017-12-25T11:35:29.269Z,95928.03
2017-12-25T11:37:56.764Z,95918.75
2017-12-25T11:40:24.251Z,95915.03
2017-12-25T11:42:51.721Z,95908.07
2017-12-25T11:45:19.228Z,95908.61
2017-12-25T11:47:46.704Z,95904.36
2017-12-25T11:50:14.185Z,95902.59
2017-12-25T11:52:41.648Z,95899.20
2017-12-25T11:55:09.148Z,95899.83
2017-12-25T11:57:36.612Z,95894.78
2017-12-25T12:00:04.099Z,95881.34
2017-12-25T12:02:31.576Z,95885.21
2017-12-25T12:04:59.044Z,95880.38
2017-12-25T12:07:26.528Z,95884.06
2017-12-25T12:09:54.010Z,95875.28
2017-12-25T12:12:21.511Z,95872.33
2017-12-25T12:14:49.020Z,95870.33
2017-12-25T12:17:16.484Z,95862.98
2017-12-25T12:19:43.955Z,95857.82
2017-12-25T12:22:11.440Z,95852.24
2017-12-25T12:24:38.912Z,95857.48
2017-12-25T12:27:06.378Z,95850.88
2017-12-25T12:29:33.856Z,95847.80
2017-12-25T12:32:01.341Z,95843.02
2017-12-25T12:34:28.821Z,95830.23
2017-12-25T12:36:56.320Z,95829.70
2017-12-25T12:39:23.790Z,95817.00
2017-12-25T12:41:51.273Z,95817.79
2017-12-25T12:44:18.768Z,95810.88
2017-12-25T12:46:46.228Z,95813.06
2017-12-25T12:49:13.704Z,95803.44
2017-12-25T12:51:41.155Z,95805.78
2017-12-25T12:54:08.662Z,95796.36
2017-12-25T12:56:36.125Z,95778.66
2017-12-25T12:59:03.597Z,95778.58
2017-12-25T13:01:31.107Z,95774.97
2017-12-25T13:03:58.592Z,95764.59
2017-12-25T13:06:26.084Z,95760.77
2017-12-25T13:08:53.573Z,95753.81
2017-12-25T13:11:21.069Z,95749.62
2017-12-25T13:13:48.558Z,95744.55
2017-12-25T13:16:16.146Z,95736.29
2017-12-25T13:18:43.638Z,95740.31
2017-12-25T13:21:11.112Z,95729.42
2017-12-25T13:23:38.593Z,95736.17
2017-12-25T13:26:06.076Z,95716.03
2017-12-25T13:28:33.552Z,95720.58
2017-12-25T13:31:01.135Z,95721.89
2017-12-25T13:33:28.637Z,95712.63
2017-12-25T13:35:56.121Z,95714.70
2017-12-25T13:38:23.585Z,95705.33
2017-12-25T13:40:51.060Z,95709.62
2017-12-25T13:43:18.625Z,95702.35
2017-12-25T13:45:46.092Z,95704.48
2017-12-25T13:48:13.552Z,95704.92
2017-12-25T13:50:41.036Z,95711.57
2017-12-25T13:53:08.500Z,95707.04
2017-12-25T13:55:35.973Z,95707.27
2017-12-25T13:58:03.454Z,95700.04
2017-12-25T14:00:30.937Z,95701.23
2017-12-25T14:02:58.508Z,95703.90
2017-12-25T14:05:26.073Z,95705.72
2017-12-25T14:07:53.537Z,95705.60
2017-12-25T14:10:21.001Z,95704.56
2017-12-25T14:12:48.484Z,95709.59
2017-12-25T14:15:15.941Z,95712.56
2017-12-25T14:17:43.484Z,95711.14
2017-12-25T14:20:10.993Z,95704.61
2017-12-25T14:22:38.453Z,95698.59
2017-12-25T14:25:05.917Z,95694.93
2017-12-25T14:27:33.392Z,95697.30
2017-12-25T14:30:00.860Z,95693.02
2017-12-25T14:32:28.321Z,95693.91
2017-12-25T14:34:55.808Z,95693.86
2017-12-25T14:37:23.269Z,95689.86
2017-12-25T14:39:50.728Z,95691.09
2017-12-25T14:42:18.216Z,95686.28
2017-12-25T14:44:45.681Z,95675.61
2017-12-25T14:47:13.145Z,95671.83
2017-12-25T14:49:40.627Z,95675.36
2017-12-25T14:52:08.088Z,95673.21
2017-12-25T14:54:35.565Z,95674.81
2017-12-25T14:57:03.033Z,95668.06
2017-12-25T14:59:30.517Z,95677.77
2017-12-25T15:01:57.981Z,95668.70
2017-12-25T15:04:25.445Z,95665.45
2017-12-25T15:06:52.928Z,95666.67
2017-12-25T15:09:20.393Z,95666.42
2017-12-25T15:11:47.876Z,95661.50
2017-12-25T15:14:15.402Z,95660.25
2017-12-25T15:16:42.925Z,95658.55
2017-12-25T15:19:10.395Z,95657.86
2017-12-25T15:21:37.869Z,95654.42
2017-12-25T15:24:05.357Z,95647.56
2017-12-25T15:26:32.829Z,95649.16
2017-12-25T15:29:00.320Z,95650.47
2017-12-25T15:31:27.799Z,95647.05
2017-12-25T15:33:55.289Z,95642.72
2017-12-25T15:36:22.766Z,95636.58
2017-12-25T15:38:50.237Z,95633.96
2017-12-25T15:41:17.724Z,95634.02
2017-12-25T15:43:45.193Z,95632.20
2017-12-25T15:46:12.677Z,95628.09
2017-12-25T15:48:40.164Z,95631.83
2017-12-25T15:51:07.633Z,95625.19
2017-12-25T15:53:35.128Z,95617.64
2017-12-25T15:56:02.597Z,95616.31
2017-12-25T15:58:30.089Z,95616.89
2017-12-25T16:00:57.561Z,95619.52
2017-12-25T16:03:25.037Z,95610.52
2017-12-25T16:05:52.529Z,95605.73
2017-12-25T16:08:20.035Z,95602.44
2017-12-25T16:10:47.505Z,95583.91
2017-12-25T16:13:14.992Z,95600.20
2017-12-25T16:15:42.451Z,95597.97
2017-12-25T16:18:09.921Z,95593.33
2017-12-25T16:20:37.409Z,95582.81
2017-12-25T16:23:04.872Z,95584.92
2017-12-25T16:25:32.339Z,95580.00
2017-12-25T16:27:59.949Z,95577.43
2017-12-25T16:30:27.415Z,95566.47
2017-12-25T16:32:54.881Z,95564.82
2017-12-25T16:35:22.360Z,95561.80
2017-12-25T16:37:49.932Z,95563.83
2017-12-25T16:40:17.401Z,95553.42
2017-12-25T16:42:44.889Z,95555.63
2017-12-25T16:45:12.352Z,95558.97
2017-12-25T16:47:39.820Z,95555.13
2017-12-25T16:50:07.305Z,95550.58
2017-12-25T16:52:34.991Z,95556.55
2017-12-25T16:55:02.509Z,95546.11
2017-12-25T16:57:30.103Z,95546.46
2017-12-25T16:59:57.577Z,95542.44
2017-12-25T17:02:25.087Z,95547.65
2017-12-25T17:04:52.545Z,95546.19
2017-12-25T17:07:20.013Z,95544.89
2017-12-25T17:09:47.481Z,95546.95
2017-12-25T17:12:14.963Z,95544.45
2017-12-25T17:14:42.428Z,95537.63
2017-12-25T17:17:09.900Z,95537.70
2017-12-25T17:19:37.381Z,95537.16
2017-12-25T17:22:04.849Z,95537.73
2017-12-25T17:24:32.336Z,95534.33
2017-12-25T17:26:59.900Z,95533.80
2017-12-25T17:29:27.371Z,95527.47
2017-12-25T17:31:54.852Z,95519.59
2017-12-25T17:34:22.313Z,95521.28
2017-12-25T17:36:49.793Z,95520.12
2017-12-25T17:39:17.261Z,95517.36
2017-12-25T17:41:44.766Z,95517.80
2017-12-25T17:44:12.252Z,95509.50
2017-12-25T17:46:42.837Z,95510.86
2017-12-25T17:49:10.514Z,95507.93
2017-12-25T17:51:37.980Z,95511.52
2017-12-25T17:54:05.444Z,95509.36
2017-12-25T17:56:32.930Z,95502.09
2017-12-25T17:59:00.401Z,95497.48
2017-12-25T18:01:27.885Z,95496.87
2017-12-25T18:03:55.367Z,95496.91
2017-12-25T18:06:22.833Z,95490.91
2017-12-25T18:08:50.323Z,95487.17
2017-12-25T18:11:17.805Z,95486.17
2017-12-25T18:13:45.309Z,95488.72
2017-12-25T18:16:12.773Z,95485.36
2017-12-25T18:18:40.245Z,95486.26
2017-12-25T18:21:07.741Z,95485.02
2017-12-25T18:23:35.209Z,95484.13
2017-12-25T18:26:02.693Z,95485.73
2017-12-25T18:28:30.156Z,95482.24
2017-12-25T18:30:57.625Z,95476.83
2017-12-25T18:33:25.141Z,95479.38
2017-12-25T18:35:52.617Z,95474.43
2017-12-25T18:38:20.089Z,95486.63
2017-12-25T18:40:47.573Z,95481.74
2017-12-25T18:43:15.067Z,95476.80
2017-12-25T18:45:42.553Z,95473.31
2017-12-25T18:48:10.037Z,95478.00
2017-12-25T18:50:37.505Z,95473.62
2017-12-25T18:53:04.974Z,95476.64
2017-12-25T18:55:32.461Z,95467.97
2017-12-25T18:57:59.929Z,95467.62
2017-12-25T19:00:27.399Z,95463.45
2017-12-25T19:02:54.896Z,95465.18
2017-12-25T19:05:22.361Z,95457.97
2017-12-25T19:07:49.825Z,95455.67
2017-12-25T19:10:17.326Z,95457.84
2017-12-25T19:12:44.800Z,95447.77
2017-12-25T19:15:12.269Z,95452.82
2017-12-25T19:17:39.770Z,95445.31
2017-12-25T19:20:07.337Z,95447.89
2017-12-25T19:22:34.808Z,95445.29
2017-12-25T19:25:02.307Z,95442.42
2017-12-25T19:27:29.776Z,95429.45
2017-12-25T19:29:57.245Z,95431.41
2017-12-25T19:32:24.737Z,95422.73
2017-12-25T19:34:52.208Z,95420.03
2017-12-25T19:37:19.680Z,95422.23
2017-12-25T19:39:47.166Z,95425.35
2017-12-25T19:42:14.632Z,95414.86
2017-12-25T19:44:42.101Z,95407.58
2017-12-25T19:47:09.584Z,95417.38
2017-12-25T19:49:37.056Z,95411.74
2017-12-25T19:52:04.548Z,95408.95
2017-12-25T19:54:32.017Z,95406.83
2017-12-25T19:56:59.485Z,95409.29
2017-12-25T19:59:26.968Z,95401.20
2017-12-25T20:01:54.439Z,95399.14
2017-12-25T20:04:21.929Z,95393.56
2017-12-25T20:06:49.396Z,95392.92
2017-12-25T20:09:16.892Z,95391.70
2017-12-25T20:11:44.376Z,95384.83
2017-12-25T20:14:11.857Z,95380.19
2017-12-25T20:16:39.340Z,95379.09
2017-12-25T20:19:06.806Z,95370.55
2017-12-25T20:21:34.307Z,95369.39
2017-12-25T20:24:01.776Z,95369.98
2017-12-25T20:26:29.252Z,95368.28
2017-12-25T20:28:56.741Z,95359.52
2017-12-25T20:31:24.220Z,95361.59
2017-12-25T20:33:51.684Z,95358.34
2017-12-25T20:36:19.177Z,95357.86
2017-12-25T20:38:46.644Z,95354.94
2017-12-25T20:41:14.133Z,95357.73
2017-12-25T20:43:41.600Z,95354.86
2017-12-25T20:46:09.064Z,95354.54
2017-12-25T20:48:36.564Z,95360.80
2017-12-25T20:51:04.069Z,95357.38
2017-12-25T20:53:31.532Z,95359.05
2017-12-25T20:55:59.014Z,95348.87
2017-12-25T20:58:26.480Z,95357.19
2017-12-25T21:00:54.005Z,95354.70
2017-12-25T21:03:21.501Z,95352.27
2017-12-25T21:05:48.968Z,95352.19
2017-12-25T21:08:16.464Z,95352.98
2017-12-25T21:10:43.948Z,95346.84
2017-12-25T21:13:11.421Z,95349.95
2017-12-25T21:15:38.889Z,95348.64
2017-12-25T21:18:06.389Z,95346.42
2017-12-25T21:20:33.856Z,95343.03
2017-12-25T21:23:01.345Z,95340.48
2017-12-25T21:25:28.817Z,95343.49
2017-12-25T21:27:56.295Z,95338.39
2017-12-25T21:30:23.785Z,95342.41
2017-12-25T21:32:51.253Z,95341.30
2017-12-25T21:35:18.745Z,95340.37
2017-12-25T21:37:46.248Z,95342.85
2017-12-25T21:40:13.712Z,95338.98
2017-12-25T21:42:41.252Z,95332.59
2017-12-25T21:45:08.681Z,95333.45
2017-12-25T21:47:36.173Z,95323.09
2017-12-25T21:50:03.646Z,95325.34
2017-12-25T21:52:31.114Z,95324.84
2017-12-25T21:54:58.597Z,95329.75
2017-12-25T21:57:26.068Z,95330.75
2017-12-25T21:59:53.538Z,95325.44
2017-12-25T22:02:21.026Z,95327.54
2017-12-25T22:04:48.504Z,95328.11
2017-12-25T22:07:15.985Z,95324.57
2017-12-25T22:09:43.520Z,95321.66
2017-12-25T22:12:10.989Z,95321.75
2017-12-25T22:14:38.452Z,95320.90
2017-12-25T22:17:05.936Z,95322.71
2017-12-25T22:19:33.408Z,95322.05
2017-12-25T22:22:00.886Z,95318.58
2017-12-25T22:24:28.383Z,95317.70
2017-12-25T22:26:55.909Z,95314.67
2017-12-25T22:29:25.718Z,95315.23
2017-12-25T22:31:53.405Z,95310.25
2017-12-25T22:34:20.879Z,95307.99
2017-12-25T22:36:48.421Z,95303.67
2017-12-25T22:39:15.892Z,95300.11
2017-12-25T22:41:43.377Z,95295.01
2017-12-25T22:44:10.845Z,95288.02
2017-12-25T22:46:38.317Z,95288.30
2017-12-25T22:49:05.805Z,95282.73
2017-12-25T22:51:33.277Z,95269.64
2017-12-25T22:54:00.765Z,95270.83
2017-12-25T22:56:28.231Z,95265.23
2017-12-25T22:58:55.714Z,95260.47
2017-12-25T23:01:23.178Z,95264.80
2017-12-25T23:03:50.640Z,95260.22
2017-12-25T23:06:18.128Z,95254.35
2017-12-25T23:08:45.604Z,95251.30
2017-12-25T23:11:13.104Z,95253.25
2017-12-25T23:13:40.569Z,95248.52
2017-12-25T23:16:08.057Z,95246.08
2017-12-25T23:18:35.547Z,95245.90
2017-12-25T23:21:03.017Z,95242.52
2017-12-25T23:23:30.500Z,95242.97
2017-12-25T23:25:57.973Z,95235.86
2017-12-25T23:28:25.439Z,95230.50
2017-12-25T23:30:52.929Z,95230.37
2017-12-25T23:33:20.405Z,95221.31
2017-12-25T23:35:47.869Z,95223.75
2017-12-25T23:38:15.445Z,95219.73
2017-12-25T23:40:42.941Z,95219.22
2017-12-25T23:43:10.444Z,95215.62
2017-12-25T23:45:37.934Z,95214.72
2017-12-25T23:48:05.413Z,95208.17
2017-12-25T23:50:33.594Z,95213.11
2017-12-25T23:53:01.108Z,95209.47
2017-12-25T23:55:28.595Z,95202.75
2017-12-25T23:57:56.100Z,95209.58
